sensor_id;sensor_type;location;lat;lon;timestamp;pressure;altitude;pressure_sealevel;temperature;humidity
43155;BME280;34212;51.018;13.586;2023-12-07T06:52:54;98147.16;;;3.66;90.81
43155;BME280;34212;51.018;13.586;2023-12-07T06:57:57;98153.72;;;3.72;90.30
43155;BME280;34212;51.018;13.586;2023-12-07T07:02:58;98145.56;;;3.75;90.07
43155;BME280;34212;51.018;13.586;2023-12-07T07:08:00;98148.38;;;3.83;90.14
43155;BME280;34212;51.018;13.586;2023-12-07T07:13:02;98149.34;;;3.82;90.15
43155;BME280;34212;51.018;13.586;2023-12-07T07:18:11;98153.78;;;3.81;89.94
43155;BME280;34212;51.018;13.586;2023-12-07T07:23:19;98160.16;;;3.79;90.24
43155;BME280;34212;51.018;13.586;2023-12-07T07:28:20;98165.56;;;3.77;89.85
43155;BME280;34212;51.018;13.586;2023-12-07T07:33:24;98167.09;;;3.80;90.51
43155;BME280;34212;51.018;13.586;2023-12-07T07:38:27;98158.66;;;3.86;90.84
43155;BME280;34212;51.018;13.586;2023-12-07T07:43:28;98160.09;;;3.90;90.28
43155;BME280;34212;51.018;13.586;2023-12-07T07:48:30;98168.28;;;3.87;89.73
43155;BME280;34212;51.018;13.586;2023-12-07T07:53:32;98171.84;;;3.86;90.11
43155;BME280;34212;51.018;13.586;2023-12-07T09:14:08;98211.75;;;4.13;90.64
43155;BME280;34212;51.018;13.586;2023-12-07T09:19:09;98220.00;;;4.20;90.89
43155;BME280;34212;51.018;13.586;2023-12-07T09:24:11;98212.38;;;4.27;90.89
43155;BME280;34212;51.018;13.586;2023-12-07T09:29:13;98207.81;;;4.29;90.57
43155;BME280;34212;51.018;13.586;2023-12-07T09:34:14;98215.63;;;4.30;90.86
43155;BME280;34212;51.018;13.586;2023-12-07T09:39:19;98225.31;;;4.30;90.43
43155;BME280;34212;51.018;13.586;2023-12-07T09:44:20;98217.28;;;4.31;91.16
43155;BME280;34212;51.018;13.586;2023-12-07T09:49:22;98216.88;;;4.36;90.76
43155;BME280;34212;51.018;13.586;2023-12-07T09:54:24;98218.19;;;4.42;90.67
43155;BME280;34212;51.018;13.586;2023-12-07T09:59:27;98211.53;;;4.47;90.65
43155;BME280;34212;51.018;13.586;2023-12-07T10:04:29;98205.28;;;4.48;90.70
43155;BME280;34212;51.018;13.586;2023-12-07T10:09:30;98220.69;;;4.43;90.08
43155;BME280;34212;51.018;13.586;2023-12-07T10:14:34;98221.22;;;4.37;89.93
43155;BME280;34212;51.018;13.586;2023-12-07T10:19:36;98212.84;;;4.32;89.99
43155;BME280;34212;51.018;13.586;2023-12-07T10:24:38;98216.31;;;4.32;90.16
43155;BME280;34212;51.018;13.586;2023-12-07T10:29:39;98207.56;;;4.32;90.35
43155;BME280;34212;51.018;13.586;2023-12-07T10:34:41;98209.69;;;4.38;90.37
43155;BME280;34212;51.018;13.586;2023-12-07T10:39:43;98209.56;;;4.39;90.50
43155;BME280;34212;51.018;13.586;2023-12-07T10:44:46;98199.84;;;4.40;90.34
43155;BME280;34212;51.018;13.586;2023-12-07T10:49:52;98192.84;;;4.39;89.81
43155;BME280;34212;51.018;13.586;2023-12-07T10:55:03;98201.19;;;4.34;89.70
43155;BME280;34212;51.018;13.586;2023-12-07T11:00:08;98204.94;;;4.32;90.14
43155;BME280;34212;51.018;13.586;2023-12-07T11:05:10;98208.81;;;4.28;90.26
43155;BME280;34212;51.018;13.586;2023-12-07T11:10:20;98198.34;;;4.26;89.52
43155;BME280;34212;51.018;13.586;2023-12-07T11:15:23;98206.16;;;4.28;90.53
43155;BME280;34212;51.018;13.586;2023-12-07T11:20:39;98201.81;;;4.27;89.82
43155;BME280;34212;51.018;13.586;2023-12-07T11:25:46;98200.00;;;4.18;90.04
43155;BME280;34212;51.018;13.586;2023-12-07T11:30:50;98197.72;;;4.13;90.16
43155;BME280;34212;51.018;13.586;2023-12-07T11:36:04;98196.63;;;4.15;89.67
43155;BME280;34212;51.018;13.586;2023-12-07T11:41:06;98194.00;;;4.15;89.60
43155;BME280;34212;51.018;13.586;2023-12-07T11:46:08;98200.94;;;4.16;89.94
43155;BME280;34212;51.018;13.586;2023-12-07T11:51:10;98200.00;;;4.18;90.24
43155;BME280;34212;51.018;13.586;2023-12-07T11:56:13;98194.47;;;4.21;89.86
43155;BME280;34212;51.018;13.586;2023-12-07T12:01:15;98202.81;;;4.26;90.30
43155;BME280;34212;51.018;13.586;2023-12-07T12:06:18;98198.25;;;4.28;89.95
43155;BME280;34212;51.018;13.586;2023-12-07T12:11:20;98193.66;;;4.30;89.94
43155;BME280;34212;51.018;13.586;2023-12-07T12:16:22;98196.53;;;4.27;89.99
43155;BME280;34212;51.018;13.586;2023-12-07T12:21:24;98194.63;;;4.29;90.05
43155;BME280;34212;51.018;13.586;2023-12-07T12:26:27;98191.47;;;4.35;90.30
43155;BME280;34212;51.018;13.586;2023-12-07T12:31:29;98189.66;;;4.35;89.67
43155;BME280;34212;51.018;13.586;2023-12-07T12:36:31;98179.22;;;4.34;89.81
43155;BME280;34212;51.018;13.586;2023-12-07T12:41:33;98177.53;;;4.33;89.96
43155;BME280;34212;51.018;13.586;2023-12-07T12:46:34;98179.81;;;4.37;90.00
43155;BME280;34212;51.018;13.586;2023-12-07T12:51:37;98174.25;;;4.40;89.67
43155;BME280;34212;51.018;13.586;2023-12-07T12:56:39;98174.00;;;4.44;90.23
43155;BME280;34212;51.018;13.586;2023-12-07T13:01:42;98177.34;;;4.46;89.80
43155;BME280;34212;51.018;13.586;2023-12-07T13:06:44;98164.00;;;4.47;89.93
43155;BME280;34212;51.018;13.586;2023-12-07T13:11:46;98176.22;;;4.48;89.81
43155;BME280;34212;51.018;13.586;2023-12-07T13:16:48;98168.31;;;4.48;89.83
43155;BME280;34212;51.018;13.586;2023-12-07T13:21:50;98173.84;;;4.45;89.69
43155;BME280;34212;51.018;13.586;2023-12-07T13:26:51;98166.19;;;4.42;89.22
43155;BME280;34212;51.018;13.586;2023-12-07T13:31:53;98171.47;;;4.42;89.82
43155;BME280;34212;51.018;13.586;2023-12-07T13:36:54;98179.13;;;4.45;89.67
43155;BME280;34212;51.018;13.586;2023-12-07T13:41:56;98179.84;;;4.47;89.43
43155;BME280;34212;51.018;13.586;2023-12-07T13:46:58;98181.78;;;4.45;89.33
43155;BME280;34212;51.018;13.586;2023-12-07T13:52:01;98195.66;;;4.37;89.03
43155;BME280;34212;51.018;13.586;2023-12-07T13:57:08;98200.34;;;4.34;89.31
43155;BME280;34212;51.018;13.586;2023-12-07T14:02:11;98198.94;;;4.30;90.28
43155;BME280;34212;51.018;13.586;2023-12-07T14:07:21;98196.75;;;4.35;89.39
43155;BME280;34212;51.018;13.586;2023-12-07T14:12:23;98191.47;;;4.35;89.79
43155;BME280;34212;51.018;13.586;2023-12-07T14:17:24;98193.13;;;4.36;89.63
43155;BME280;34212;51.018;13.586;2023-12-07T14:22:29;98191.19;;;4.38;89.05
43155;BME280;34212;51.018;13.586;2023-12-07T14:27:31;98193.56;;;4.41;89.28
43155;BME280;34212;51.018;13.586;2023-12-07T14:32:32;98192.59;;;4.42;88.68
43155;BME280;34212;51.018;13.586;2023-12-07T14:37:34;98189.00;;;4.43;88.89
43155;BME280;34212;51.018;13.586;2023-12-07T14:42:35;98188.03;;;4.44;89.36
43155;BME280;34212;51.018;13.586;2023-12-07T14:47:37;98184.56;;;4.44;89.16
43155;BME280;34212;51.018;13.586;2023-12-07T14:52:39;98182.03;;;4.42;89.21
43155;BME280;34212;51.018;13.586;2023-12-07T14:57:40;98175.09;;;4.41;89.07
43155;BME280;34212;51.018;13.586;2023-12-07T15:02:42;98188.28;;;4.41;88.89
43155;BME280;34212;51.018;13.586;2023-12-07T15:07:43;98196.38;;;4.39;89.11
43155;BME280;34212;51.018;13.586;2023-12-07T15:12:45;98194.81;;;4.37;89.12
43155;BME280;34212;51.018;13.586;2023-12-07T15:17:46;98200.78;;;4.39;88.56
43155;BME280;34212;51.018;13.586;2023-12-07T15:22:49;98190.69;;;4.44;88.92
43155;BME280;34212;51.018;13.586;2023-12-07T15:27:51;98193.75;;;4.49;89.14
43155;BME280;34212;51.018;13.586;2023-12-07T15:32:52;98199.63;;;4.53;88.56
43155;BME280;34212;51.018;13.586;2023-12-07T15:37:54;98206.28;;;4.57;88.99
43155;BME280;34212;51.018;13.586;2023-12-07T15:42:55;98206.19;;;4.58;88.73
43155;BME280;34212;51.018;13.586;2023-12-07T15:47:57;98201.59;;;4.60;88.37
43155;BME280;34212;51.018;13.586;2023-12-07T15:52:59;98182.16;;;4.61;88.78
43155;BME280;34212;51.018;13.586;2023-12-07T15:58:00;98182.00;;;4.63;88.68
43155;BME280;34212;51.018;13.586;2023-12-07T16:03:02;98172.41;;;4.62;88.25
43155;BME280;34212;51.018;13.586;2023-12-07T16:08:04;98181.44;;;4.59;88.41
43155;BME280;34212;51.018;13.586;2023-12-07T16:13:05;98177.13;;;4.58;88.96
43155;BME280;34212;51.018;13.586;2023-12-07T16:18:07;98184.06;;;4.59;89.02
43155;BME280;34212;51.018;13.586;2023-12-07T16:23:09;98196.00;;;4.54;88.96
43155;BME280;34212;51.018;13.586;2023-12-07T16:28:11;98191.53;;;4.54;89.06
43155;BME280;34212;51.018;13.586;2023-12-07T16:33:12;98192.25;;;4.56;88.59
43155;BME280;34212;51.018;13.586;2023-12-07T16:38:14;98189.63;;;4.56;89.08
43155;BME280;34212;51.018;13.586;2023-12-07T16:43:15;98171.13;;;4.56;88.67
43155;BME280;34212;51.018;13.586;2023-12-07T16:48:17;98179.06;;;4.56;88.58
43155;BME280;34212;51.018;13.586;2023-12-07T16:53:18;98195.44;;;4.50;88.85
43155;BME280;34212;51.018;13.586;2023-12-07T16:58:20;98190.16;;;4.50;88.55
43155;BME280;34212;51.018;13.586;2023-12-07T17:03:30;98205.88;;;4.52;88.74
43155;BME280;34212;51.018;13.586;2023-12-07T17:08:32;98194.34;;;4.53;88.94
43155;BME280;34212;51.018;13.586;2023-12-07T17:13:35;98186.25;;;4.54;88.77
43155;BME280;34212;51.018;13.586;2023-12-07T17:18:38;98178.50;;;4.53;89.09
43155;BME280;34212;51.018;13.586;2023-12-07T17:23:39;98186.25;;;4.54;88.38
43155;BME280;34212;51.018;13.586;2023-12-07T17:28:42;98189.50;;;4.58;89.02
43155;BME280;34212;51.018;13.586;2023-12-07T17:33:43;98197.28;;;4.59;88.56
43155;BME280;34212;51.018;13.586;2023-12-07T17:38:45;98189.19;;;4.61;88.52
43155;BME280;34212;51.018;13.586;2023-12-07T17:43:48;98205.91;;;4.61;88.79
43155;BME280;34212;51.018;13.586;2023-12-07T17:48:51;98218.16;;;4.62;88.26
43155;BME280;34212;51.018;13.586;2023-12-07T17:53:53;98193.38;;;4.63;88.29
43155;BME280;34212;51.018;13.586;2023-12-07T17:58:54;98184.53;;;4.65;88.71
43155;BME280;34212;51.018;13.586;2023-12-07T18:03:56;98199.38;;;4.66;88.03
43155;BME280;34212;51.018;13.586;2023-12-07T18:09:00;98194.09;;;4.66;88.57
43155;BME280;34212;51.018;13.586;2023-12-07T18:14:02;98198.56;;;4.65;88.71
43155;BME280;34212;51.018;13.586;2023-12-07T18:19:03;98192.44;;;4.65;88.59
43155;BME280;34212;51.018;13.586;2023-12-07T18:24:06;98196.75;;;4.66;88.65
43155;BME280;34212;51.018;13.586;2023-12-07T18:29:09;98187.16;;;4.65;88.76
43155;BME280;34212;51.018;13.586;2023-12-07T18:34:11;98169.63;;;4.63;88.47
43155;BME280;34212;51.018;13.586;2023-12-07T18:39:13;98167.94;;;4.62;88.49
43155;BME280;34212;51.018;13.586;2023-12-07T18:44:15;98169.19;;;4.58;88.36
43155;BME280;34212;51.018;13.586;2023-12-07T18:49:16;98146.25;;;4.59;88.76
43155;BME280;34212;51.018;13.586;2023-12-07T18:54:18;98144.19;;;4.62;88.23
43155;BME280;34212;51.018;13.586;2023-12-07T18:59:19;98149.56;;;4.61;88.13
43155;BME280;34212;51.018;13.586;2023-12-07T19:04:21;98145.16;;;4.61;88.40
43155;BME280;34212;51.018;13.586;2023-12-07T19:09:22;98157.38;;;4.62;87.80
43155;BME280;34212;51.018;13.586;2023-12-07T19:14:24;98154.75;;;4.62;88.07
43155;BME280;34212;51.018;13.586;2023-12-07T19:19:25;98150.44;;;4.61;87.95
43155;BME280;34212;51.018;13.586;2023-12-07T19:24:27;98142.78;;;4.58;88.55
43155;BME280;34212;51.018;13.586;2023-12-07T19:29:31;98136.38;;;4.61;88.31
43155;BME280;34212;51.018;13.586;2023-12-07T19:34:33;98128.59;;;4.59;88.36
43155;BME280;34212;51.018;13.586;2023-12-07T19:39:35;98122.34;;;4.60;88.28
43155;BME280;34212;51.018;13.586;2023-12-07T19:44:36;98103.00;;;4.60;88.17
43155;BME280;34212;51.018;13.586;2023-12-07T19:49:38;98092.59;;;4.58;88.04
43155;BME280;34212;51.018;13.586;2023-12-07T19:54:40;98087.31;;;4.58;87.74
43155;BME280;34212;51.018;13.586;2023-12-07T19:59:42;98076.75;;;4.58;87.68
43155;BME280;34212;51.018;13.586;2023-12-07T20:04:43;98085.63;;;4.57;87.53
43155;BME280;34212;51.018;13.586;2023-12-07T20:09:45;98075.31;;;4.54;87.64
43155;BME280;34212;51.018;13.586;2023-12-07T20:14:46;98073.66;;;4.53;88.34
43155;BME280;34212;51.018;13.586;2023-12-07T20:19:49;98057.81;;;4.53;87.87
43155;BME280;34212;51.018;13.586;2023-12-07T20:24:50;98066.56;;;4.54;88.07
43155;BME280;34212;51.018;13.586;2023-12-07T20:29:52;98048.06;;;4.54;87.51
43155;BME280;34212;51.018;13.586;2023-12-07T20:34:54;98037.78;;;4.51;87.41
43155;BME280;34212;51.018;13.586;2023-12-07T20:39:55;98033.59;;;4.48;87.55
43155;BME280;34212;51.018;13.586;2023-12-07T20:44:57;98029.56;;;4.44;87.50
43155;BME280;34212;51.018;13.586;2023-12-07T20:49:58;98022.19;;;4.38;87.09
43155;BME280;34212;51.018;13.586;2023-12-07T20:54:59;98020.25;;;4.30;86.37
43155;BME280;34212;51.018;13.586;2023-12-07T21:00:02;97997.41;;;4.20;86.26
43155;BME280;34212;51.018;13.586;2023-12-07T21:05:07;97995.16;;;4.05;85.83
43155;BME280;34212;51.018;13.586;2023-12-07T21:10:09;98003.59;;;3.89;85.24
43155;BME280;34212;51.018;13.586;2023-12-07T21:15:10;98002.56;;;3.81;85.74
43155;BME280;34212;51.018;13.586;2023-12-07T21:20:12;97998.41;;;3.78;85.62
43155;BME280;34212;51.018;13.586;2023-12-07T21:25:14;97994.22;;;3.76;85.57
43155;BME280;34212;51.018;13.586;2023-12-07T21:30:18;97982.25;;;3.72;85.35
43155;BME280;34212;51.018;13.586;2023-12-07T21:35:20;97978.19;;;3.67;84.93
43155;BME280;34212;51.018;13.586;2023-12-07T21:40:22;97969.72;;;3.64;85.53
43155;BME280;34212;51.018;13.586;2023-12-07T21:45:23;97966.09;;;3.55;84.70
43155;BME280;34212;51.018;13.586;2023-12-07T21:50:25;97967.97;;;3.43;83.44
43155;BME280;34212;51.018;13.586;2023-12-07T21:55:27;97959.03;;;3.35;83.86
43155;BME280;34212;51.018;13.586;2023-12-07T22:00:29;97951.34;;;3.22;83.97
43155;BME280;34212;51.018;13.586;2023-12-07T22:05:31;97963.63;;;3.12;83.44
43155;BME280;34212;51.018;13.586;2023-12-07T22:10:33;97966.06;;;3.04;83.14
43155;BME280;34212;51.018;13.586;2023-12-07T22:15:35;97949.94;;;2.97;83.09
43155;BME280;34212;51.018;13.586;2023-12-07T22:20:36;97956.31;;;2.94;83.02
43155;BME280;34212;51.018;13.586;2023-12-07T22:25:38;97966.13;;;2.92;83.67
43155;BME280;34212;51.018;13.586;2023-12-07T22:30:39;97960.03;;;2.92;83.18
43155;BME280;34212;51.018;13.586;2023-12-07T22:35:41;97958.38;;;2.91;82.69
43155;BME280;34212;51.018;13.586;2023-12-07T22:40:44;97973.44;;;2.89;83.06
43155;BME280;34212;51.018;13.586;2023-12-07T22:45:47;97968.44;;;2.86;82.90
43155;BME280;34212;51.018;13.586;2023-12-07T22:50:48;97961.75;;;2.82;83.05
43155;BME280;34212;51.018;13.586;2023-12-07T22:55:50;97953.28;;;2.78;83.91
43155;BME280;34212;51.018;13.586;2023-12-07T23:00:51;97954.38;;;2.75;83.47
43155;BME280;34212;51.018;13.586;2023-12-07T23:05:53;97949.22;;;2.74;83.86
43155;BME280;34212;51.018;13.586;2023-12-07T23:10:54;97939.06;;;2.69;83.07
43155;BME280;34212;51.018;13.586;2023-12-07T23:15:56;97933.34;;;2.64;83.52
43155;BME280;34212;51.018;13.586;2023-12-07T23:20:58;97929.44;;;2.59;83.42
43155;BME280;34212;51.018;13.586;2023-12-07T23:25:59;97923.72;;;2.53;83.32
43155;BME280;34212;51.018;13.586;2023-12-07T23:31:01;97920.50;;;2.50;83.06
43155;BME280;34212;51.018;13.586;2023-12-07T23:36:03;97915.47;;;2.47;83.17
43155;BME280;34212;51.018;13.586;2023-12-07T23:41:05;97896.59;;;2.42;83.12
43155;BME280;34212;51.018;13.586;2023-12-07T23:46:08;97881.06;;;2.39;82.94
43155;BME280;34212;51.018;13.586;2023-12-07T23:51:09;97867.31;;;2.35;83.29
43155;BME280;34212;51.018;13.586;2023-12-07T23:56:11;97867.41;;;2.34;83.55
